默认 日期 大小 文件数 浏览量 最新下载 xml
miller磁力链接相关资源由用户搜索指令自动获取,结果来源于网络,本站不存储任何资料,亦不承担任何责任,请于24小时内删除,搜索到15572个磁力,显示前4000条数据,用时8ms。
    {"front.jpg": 3382713, "foo_dr.txt": 1560, "03 - Water.flac": 114093472, "04 - Baden.flac": 66946905, "06 - Angel.flac": 54901986, "09 - Tisane.flac": 62925738, "10 - Valium.flac": 91440841, "Silent Light.pdf": 1727700, "11 - Le Pont.flac": 47362305, "05 - ...
创建时间: 2018-11-07 04:11:22 大小:777.38 MB 文件数量:14 热度:17 最近下载:2025-02-24 21:46:02
    {"Cover.jpg": 18428, "H4CKUS NOTE.jpg": 49416, "13-mac_miller-ros.mp3": 10072470, "16-mac_miller-jump.mp3": 9012896, "01-mac_miller-doors.mp3": 2153023, "03-mac_miller-rush_hour.mp3": 5934115, "08-mac_miller-clubhouse.mp3": 5805384, "15-mac_miller- ...
创建时间: 2018-11-07 06:36:42 大小:120.81 MB 文件数量:21 热度:6 最近下载:2025-03-16 21:48:03
    {"oldyounglesbianlove.18.07.23.red.mary.and.miranda.miller.old.and.new[N1C].mp4": 1284964146}
创建时间: 2018-11-07 07:06:00 大小:1.2 GB 文件数量:1 热度:27 最近下载:2025-03-16 23:31:03
    {"gd87-06-12.142923.txt": 6441, "gd1987-06-12.142923.ffp": 1721, "gd87-06-12 s2t07 Drums.flac": 38626793, "gd87-06-12 s2t08 Space.flac": 39429850, "gd87-06-12 s1t01 Tuning.flac": 4492076, "gd87-06-12 s2t01 Tuning.flac": 4505531, "gd87-06-12.142923.tagged. ...
创建时间: 2018-11-07 07:13:14 大小:956.86 MB 文件数量:29 热度:10 最近下载:2025-04-25 17:35:03
    {"BDMV": {"META": {"DL": {"bdmt_eng.xml": 546, "BD_TV_Luisa-Miller_416x240.jpg": 33839, "BD_TV_Luisa-Miller_640x360.jpg": 48048}}, "BACKUP": {"CLIPINF": {"00000.clpi": 376, "00001.clpi": 24528, "00002.clpi": 292, "00003.clpi": 864, "00004.clpi": 372, " ...
创建时间: 2018-11-07 07:39:57 大小:37.84 GB 文件数量:77 热度:27 最近下载:2025-09-17 05:32:14
    {"Daisy Miller - LightScribe DVD .ncd": 2085, "Daisy Miller + extras [Eng] 1974 [NoPassWord] tt0071385 [DVD] .DivX": 765887500, "Daisy Miller + extras [Eng] 1974 [NoPassWord] tt0071385 [DVD] .DivX .rtf": 917}
创建时间: 2018-11-07 07:40:10 大小:730.41 MB 文件数量:3 热度:5 最近下载:2023-04-10 04:30:01
    {"cover.jpeg": 247548, "10. Joy.mp3": 8504524, "06. Dream.mp3": 10130388, "01. I'mona Wait.mp3": 6020816, "02. Sugar Sweet.mp3": 7865061, "12. Spin That Record.mp3": 6436697, "09. Gold Digger Blues.mp3": 8741742, "11. I Know for Certain.mp3": 9140897, "03. ...
创建时间: 2018-11-07 07:50:34 大小:96.15 MB 文件数量:13 热度:8 最近下载:2024-12-22 23:57:01
    {"Hells Heart Prey, Book 1 (Unabridged).cue": 3954, "Hells Heart Prey, Book 1 (Unabridged).jpg": 62041, "Hells Heart Prey, Book 1 (Unabridged).m4b": 357510910}
创建时间: 2018-11-07 07:52:55 大小:341.01 MB 文件数量:3 热度:14 最近下载:2024-12-03 16:45:03
    {"07 Drums.flac": 87345125, "08 Space.flac": 55243378, "01 Tuning.flac": 7887777, "gd93-05-21.ffp": 729, "gd93-05-21.md5": 742, "gd93-05-21.txt": 2006, "06 He's Gone.flac": 79789991, "10 Morning Dew.flac": 72943921, "11 Encore Break.flac": 2862972, "12 ...
创建时间: 2018-11-07 07:54:47 大小:608.7 MB 文件数量:16 热度:8 最近下载:2025-03-06 02:21:03
    {"RARBG.to.nfo": 32, "HandsOnHardcore - Cristina Miller - Vacation Rental Defloration.mp4": 312419717}
创建时间: 2018-11-07 08:19:26 大小:297.95 MB 文件数量:2 热度:18 最近下载:2025-07-09 16:48:02
    {"53_fansign": {"dawsonmiller_fansign_001.jpg": 259919, "dawsonmiller_fansign_002.jpg": 239350, "dawsonmiller_fansign_003.jpg": 287335, "dawsonmiller_fansign_004.jpg": 295587, "dawsonmiller_fansign_005.jpg": 256090, "dawsonmiller_fansign_006.jpg": 267743, ...
创建时间: 2018-11-07 08:25:53 大小:198.95 MB 文件数量:430 热度:6 最近下载:2023-04-10 05:00:10
    {"15 Drums.flac": 43194242, "16 Space.flac": 40622745, "01 Tuning.flac": 9746163, "03 Bertha.flac": 48871326, "10 Tuning.flac": 6500820, "07 El Paso.flac": 36928389, "17 The Wheel.flac": 43830348, "13 China Doll.flac": 43092349, "05 Far From Me.flac": ...
创建时间: 2018-11-07 09:06:18 大小:911.99 MB 文件数量:26 热度:11 最近下载:2025-04-16 23:29:01
    ... schoeps.cmc4.mk4.pcm.mattes.miller.clugston.flac16.ffp": 1511, ... schoeps.cmc4.mk4.pcm.mattes.miller.clugston.flac16.md5": 1533, ... schoeps.cmc4.mk4.pcm.mattes.miller.clugston.flac16.txt": 5051, ... schoeps.cmc4.mk4.pcm.mattes.miller.clugston.flac16.shntool_len.txt": ...
创建时间: 2018-11-07 10:17:14 大小:885.77 MB 文件数量:26 热度:11 最近下载:2025-08-26 07:14:01
    {"UX Presentation Templates.zip": 121992060}
创建时间: 2018-11-07 10:34:44 大小:116.34 MB 文件数量:1 热度:7 最近下载:2023-04-10 06:10:05
    {"Torrent Downloaded From ExtraTorrent.cc.nfo": 338, "reg.miranda.miller.all.she.can.take.09.05.15_480.mp4": 270581695}
创建时间: 2018-11-07 11:29:01 大小:258.05 MB 文件数量:2 热度:21 最近下载:2025-09-26 00:53:02
    {"poster.jpg": 24372, "screens.jpg": 268468, "RARBG.com.txt": 33, "Olivia.Devine.Kerry.Miller.mp4": 1999874072}
创建时间: 2018-11-07 11:46:44 大小:1.86 GB 文件数量:4 热度:28 最近下载:2025-10-13 11:26:02
    {"RARBG.txt": 30, "oldyounglesbianlove.18.07.23.red.mary.and.miranda.miller.old.and.new.mp4": 1284964452, "oldyounglesbianlove.18.07.23.red.mary.and.miranda.miller.old.and.new.nfo": 5232}
创建时间: 2018-11-07 11:51:24 大小:1.2 GB 文件数量:3 热度:23 最近下载:2025-09-26 00:44:03
    {"gd89-03-30.ffp": 1045, "gd89-03-30.md5": 1064, "gd89-03-30.txt": 2559, "gd89-03-30d1t01.flac": 6802634, "gd89-03-30d1t02.flac": 43798604, "gd89-03-30d1t03.flac": 52705360, "gd89-03-30d1t04.flac": 85049238, "gd89-03-30d1t05.flac": 56358352, "gd89-03- ...
创建时间: 2018-11-07 12:17:12 大小:902.34 MB 文件数量:22 热度:16 最近下载:2025-01-29 16:54:02
    {"Sample": {"atkg.14.08.25.amarna.miller.masturbation-sample.mp4": 0}, "RARBG.com.txt": 34, "atkg.14.08.25.amarna.miller.masturbation.mp4": 703526066, "atkg.14.08.25.amarna.miller.masturbation.nfo": 6987}
创建时间: 2018-11-07 12:38:17 大小:670.94 MB 文件数量:4 热度:22 最近下载:2025-08-17 04:12:02
    {"The Jackals Trick Star Trek Prey, Book 2 (Unabridged).cue": 3851, "The Jackals Trick Star Trek Prey, Book 2 (Unabridged).jpg": 58628, "The Jackals Trick Star Trek Prey, Book 2 (Unabridged).m4b": 337185221}
创建时间: 2018-11-07 14:49:06 大小:321.62 MB 文件数量:3 热度:12 最近下载:2025-10-16 22:55:04